createdAt,value
2019-03-04T00:03:50.725Z,1.17
2019-03-04T00:07:55.822Z,1.07
2019-03-04T00:11:59.743Z,1.07
2019-03-04T00:16:03.956Z,1.20
2019-03-04T00:20:08.269Z,1.43
2019-03-04T00:24:12.368Z,1.03
2019-03-04T00:28:16.389Z,1.23
2019-03-04T00:32:20.444Z,1.00
2019-03-04T00:36:24.440Z,1.10
2019-03-04T00:40:28.609Z,1.00
2019-03-04T00:44:32.758Z,1.17
2019-03-04T00:48:36.728Z,1.00
2019-03-04T00:52:40.818Z,1.03
2019-03-04T00:56:45.247Z,0.77
2019-03-04T01:00:49.258Z,1.00
2019-03-04T01:04:53.272Z,1.07
2019-03-04T01:08:57.366Z,1.00
2019-03-04T01:13:01.520Z,0.63
2019-03-04T01:17:06.566Z,0.60
2019-03-04T01:21:10.569Z,0.60
2019-03-04T01:25:15.405Z,0.57
2019-03-04T01:29:19.400Z,0.60
2019-03-04T01:33:23.667Z,0.80
2019-03-04T01:37:27.898Z,0.60
2019-03-04T01:41:31.999Z,0.50
2019-03-04T01:45:36.015Z,0.60
2019-03-04T01:49:40.063Z,0.40
2019-03-04T01:53:44.074Z,0.50
2019-03-04T01:57:48.151Z,0.60
2019-03-04T02:01:52.255Z,0.60
2019-03-04T02:05:56.545Z,0.50
2019-03-04T02:10:00.635Z,0.60
2019-03-04T02:14:04.916Z,0.97
2019-03-04T02:18:09.121Z,0.70
2019-03-04T02:22:13.239Z,0.70
2019-03-04T02:26:20.439Z,0.60
2019-03-04T02:30:25.735Z,0.80
2019-03-04T02:34:29.934Z,0.87
2019-03-04T02:38:33.956Z,0.70
2019-03-04T02:42:38.306Z,0.70
2019-03-04T02:46:42.346Z,1.00
2019-03-04T02:50:46.311Z,0.77
2019-03-04T02:54:50.315Z,0.70
2019-03-04T02:58:54.401Z,0.80
2019-03-04T03:02:58.288Z,0.77
2019-03-04T03:07:05.077Z,0.90
2019-03-04T03:11:09.371Z,0.80
2019-03-04T03:15:15.037Z,0.80
2019-03-04T03:19:19.047Z,0.80
2019-03-04T03:23:23.283Z,0.70
2019-03-04T03:27:27.319Z,0.60
2019-03-04T03:31:31.329Z,0.70
2019-03-04T03:35:35.407Z,0.70
2019-03-04T03:39:39.595Z,0.70
2019-03-04T03:43:43.875Z,0.60
2019-03-04T03:47:47.966Z,0.70
2019-03-04T03:51:52.068Z,0.73
2019-03-04T03:55:56.339Z,0.77
2019-03-04T04:04:50.017Z,0.70
2019-03-04T04:08:54.080Z,0.80
2019-03-04T04:12:58.240Z,0.87
2019-03-04T04:17:02.210Z,0.80
2019-03-04T04:21:07.327Z,0.90
2019-03-04T04:25:12.071Z,0.93
2019-03-04T04:29:16.245Z,0.90
2019-03-04T04:33:20.166Z,0.90
2019-03-04T04:37:24.171Z,1.00
2019-03-04T04:41:28.231Z,0.80
2019-03-04T04:45:32.227Z,0.90
2019-03-04T04:49:36.315Z,0.90
2019-03-04T04:53:40.200Z,0.80
2019-03-04T04:57:44.484Z,0.90
2019-03-04T05:01:48.506Z,0.90
2019-03-04T05:05:52.580Z,0.90
2019-03-04T05:09:56.630Z,0.80
2019-03-04T05:14:00.653Z,1.03
2019-03-04T05:18:04.695Z,1.17
2019-03-04T05:22:08.763Z,1.10
2019-03-04T05:26:12.956Z,0.90
2019-03-04T05:30:18.053Z,0.90
2019-03-04T05:34:22.094Z,0.87
2019-03-04T05:38:26.144Z,0.83
2019-03-04T05:42:30.342Z,1.20
2019-03-04T05:46:34.476Z,1.00
2019-03-04T05:50:38.434Z,1.20
2019-03-04T05:54:42.508Z,1.00
2019-03-04T05:58:46.611Z,0.70
2019-03-04T06:02:50.622Z,0.80
2019-03-04T06:07:00.386Z,0.67
2019-03-04T06:11:04.472Z,0.70
2019-03-04T06:15:10.214Z,0.70
2019-03-04T06:19:14.351Z,0.60
2019-03-04T06:23:37.982Z,0.80
2019-03-04T06:27:42.094Z,0.60
2019-03-04T06:31:46.150Z,0.70
2019-03-04T06:35:50.188Z,0.60
2019-03-04T06:39:55.582Z,0.60
2019-03-04T06:43:59.599Z,0.90
2019-03-04T06:48:03.571Z,0.40
2019-03-04T06:52:07.527Z,0.40
2019-03-04T06:56:15.557Z,0.37
2019-03-04T07:00:22.207Z,0.40
2019-03-04T07:04:29.131Z,0.40
2019-03-04T07:08:52.405Z,0.40
2019-03-04T07:12:56.511Z,0.40
2019-03-04T07:17:00.553Z,0.40
2019-03-04T07:21:04.607Z,0.40
2019-03-04T07:25:08.836Z,0.40
2019-03-04T07:29:14.991Z,1.30
2019-03-04T07:33:18.567Z,0.40
2019-03-04T07:37:22.531Z,0.50
2019-03-04T07:41:30.564Z,0.40
2019-03-04T07:45:34.787Z,0.50
2019-03-04T07:49:39.035Z,0.57
2019-03-04T07:53:46.455Z,0.63
2019-03-04T07:57:48.934Z,0.47
2019-03-04T08:01:53.099Z,0.50
2019-03-04T08:05:57.818Z,0.60
2019-03-04T08:10:21.279Z,0.50
2019-03-04T08:14:25.400Z,0.47
2019-03-04T08:18:29.374Z,0.40
2019-03-04T08:22:33.415Z,0.50
2019-03-04T08:26:37.406Z,0.40
2019-03-04T08:30:41.503Z,0.40
2019-03-04T08:34:45.680Z,0.40
2019-03-04T08:38:50.798Z,0.40
2019-03-04T08:42:54.942Z,0.40
2019-03-04T08:46:59.149Z,0.57
2019-03-04T08:51:03.297Z,0.33
2019-03-04T08:55:07.904Z,0.50
2019-03-04T08:59:12.236Z,0.50
2019-03-04T09:03:16.435Z,0.60
2019-03-04T09:07:20.759Z,0.33
2019-03-04T09:11:24.858Z,0.53
2019-03-04T09:15:28.913Z,0.60
2019-03-04T09:19:33.108Z,0.60
2019-03-04T09:23:37.412Z,0.60
2019-03-04T09:27:41.643Z,0.63
2019-03-04T09:31:45.714Z,0.70
2019-03-04T09:35:49.828Z,0.77
2019-03-04T09:39:55.166Z,0.70
2019-03-04T09:43:59.053Z,0.70
2019-03-04T09:48:03.105Z,0.70
2019-03-04T09:52:07.202Z,0.57
2019-03-04T09:56:11.176Z,0.70
2019-03-04T10:00:26.012Z,0.77
2019-03-04T10:04:41.679Z,0.80
2019-03-04T10:08:50.329Z,1.30
2019-03-04T10:13:03.064Z,1.23
2019-03-04T10:17:22.228Z,4.70
2019-03-04T10:21:30.873Z,3.77
2019-03-04T10:25:41.921Z,1.33
2019-03-04T10:29:53.564Z,1.00
2019-03-04T10:34:16.899Z,1.03
2019-03-04T10:38:42.942Z,1.30
2019-03-04T10:43:04.907Z,1.03
2019-03-04T10:47:08.956Z,0.70
2019-03-04T10:51:13.023Z,1.00
2019-03-04T10:55:17.109Z,0.80
2019-03-04T10:59:21.060Z,1.57
2019-03-04T11:03:26.186Z,0.93
2019-03-04T11:07:30.291Z,0.43
2019-03-04T11:11:34.440Z,0.70
2019-03-04T11:15:38.337Z,0.70
2019-03-04T11:19:42.515Z,0.50
2019-03-04T11:23:46.746Z,0.50
2019-03-04T11:27:50.844Z,0.60
2019-03-04T11:31:55.343Z,0.40
2019-03-04T11:35:59.563Z,0.30
2019-03-04T11:40:11.586Z,0.50
2019-03-04T11:44:17.084Z,0.50
2019-03-04T11:48:21.296Z,0.40
2019-03-04T11:52:25.475Z,0.40
2019-03-04T11:56:29.595Z,0.60
2019-03-04T12:00:38.415Z,0.40
2019-03-04T12:04:42.855Z,0.47
2019-03-04T12:08:46.888Z,0.40
2019-03-04T12:12:51.019Z,0.40
2019-03-04T12:16:55.146Z,0.40
2019-03-04T12:20:59.847Z,0.50
2019-03-04T12:25:04.639Z,0.40
2019-03-04T12:29:08.704Z,0.60
2019-03-04T12:33:13.109Z,0.40
2019-03-04T12:37:17.424Z,0.60
2019-03-04T12:41:21.589Z,0.40
2019-03-04T12:45:34.095Z,0.40
2019-03-04T12:49:33.223Z,0.60
2019-03-04T12:53:37.717Z,0.70
2019-03-04T12:57:43.055Z,0.50
2019-03-04T13:01:47.212Z,0.60
2019-03-04T13:05:51.310Z,0.80
2019-03-04T13:09:56.580Z,1.00
2019-03-04T13:14:00.664Z,1.10
2019-03-04T13:18:04.771Z,1.30
2019-03-04T13:22:09.081Z,1.73
2019-03-04T13:26:13.198Z,0.90
2019-03-04T13:30:18.055Z,1.10
2019-03-04T13:34:22.056Z,0.70
2019-03-04T13:38:26.183Z,0.50
2019-03-04T13:42:31.600Z,0.50
2019-03-04T13:46:35.733Z,0.60
2019-03-04T13:50:39.712Z,0.90
2019-03-04T13:54:44.089Z,0.70
2019-03-04T13:58:48.164Z,0.50
2019-03-04T14:02:52.516Z,0.67
2019-03-04T14:06:56.376Z,1.40
2019-03-04T14:11:00.550Z,1.47
2019-03-04T14:30:04.970Z,0.60
2019-03-04T14:34:11.186Z,0.90
2019-03-04T14:38:15.299Z,1.20
2019-03-04T14:42:19.274Z,1.20
2019-03-04T14:46:24.318Z,1.37
2019-03-04T14:50:28.662Z,1.40
2019-03-04T14:54:32.883Z,1.00
2019-03-04T14:58:36.830Z,1.20
2019-03-04T15:02:42.156Z,1.10
2019-03-04T15:06:46.204Z,1.23
2019-03-04T15:10:50.365Z,1.37
2019-03-04T15:14:54.380Z,1.23
2019-03-04T15:18:58.438Z,1.80
2019-03-04T15:23:02.487Z,1.50
2019-03-04T15:27:06.511Z,1.80
2019-03-04T15:31:11.594Z,1.43
2019-03-04T15:35:15.829Z,1.60
2019-03-04T15:39:23.218Z,1.37
2019-03-04T15:43:25.770Z,1.50
2019-03-04T15:47:29.891Z,1.40
2019-03-04T15:51:33.907Z,1.47
2019-03-04T15:55:37.923Z,1.30
2019-03-04T15:59:41.833Z,1.10
2019-03-04T16:03:46.278Z,1.10
2019-03-04T16:07:50.923Z,2.07
2019-03-04T16:11:54.904Z,1.20
2019-03-04T16:16:00.035Z,1.53
2019-03-04T16:20:04.411Z,1.20
2019-03-04T16:24:08.529Z,1.40
2019-03-04T16:28:13.869Z,1.90
2019-03-04T16:32:17.977Z,1.30
2019-03-04T16:36:22.026Z,1.40
2019-03-04T16:40:26.094Z,0.90
2019-03-04T16:44:30.305Z,1.20
2019-03-04T16:48:34.413Z,0.90
2019-03-04T16:52:38.394Z,0.87
2019-03-04T16:56:42.465Z,1.07
2019-03-04T17:00:46.769Z,0.77
2019-03-04T17:04:50.834Z,0.80
2019-03-04T17:08:56.242Z,0.83
2019-03-04T17:13:00.338Z,0.90
2019-03-04T17:17:09.263Z,0.90
2019-03-04T17:21:13.292Z,0.87
2019-03-04T17:25:17.446Z,1.40
2019-03-04T17:29:22.823Z,1.23
2019-03-04T17:33:27.123Z,1.13
2019-03-04T17:37:32.487Z,1.40
2019-03-04T17:41:36.806Z,1.17
2019-03-04T17:45:41.117Z,1.27
2019-03-04T17:49:45.195Z,1.73
2019-03-04T17:53:49.261Z,0.97
2019-03-04T17:57:53.276Z,1.30
2019-03-04T18:01:57.317Z,0.80
2019-03-04T18:06:01.750Z,1.00
2019-03-04T18:10:07.189Z,0.80
2019-03-04T18:14:11.299Z,1.07
2019-03-04T18:18:15.298Z,1.30
2019-03-04T18:22:19.883Z,2.00
2019-03-04T18:26:27.553Z,1.70
2019-03-04T18:30:50.848Z,1.33
2019-03-04T18:35:14.328Z,1.63
2019-03-04T18:39:25.100Z,1.80
2019-03-04T18:43:33.070Z,1.53
2019-03-04T18:47:56.304Z,1.33
2019-03-04T18:52:00.292Z,1.20
2019-03-04T18:56:04.503Z,1.00
2019-03-04T19:00:11.027Z,0.93
2019-03-04T19:04:15.481Z,1.03
2019-03-04T19:08:19.474Z,1.23
2019-03-04T19:12:23.743Z,1.53
2019-03-04T19:16:27.866Z,1.27
2019-03-04T19:20:32.100Z,1.40
2019-03-04T19:24:37.673Z,1.40
2019-03-04T19:28:41.826Z,1.53
2019-03-04T19:32:46.185Z,1.00
2019-03-04T19:36:50.357Z,1.10
2019-03-04T19:40:54.606Z,0.90
2019-03-04T19:44:58.609Z,1.20
2019-03-04T19:49:02.929Z,0.93
2019-03-04T19:53:07.505Z,1.00
2019-03-04T19:57:11.687Z,1.00
2019-03-04T20:01:15.749Z,1.30
2019-03-04T20:05:20.075Z,1.23
2019-03-04T20:09:24.320Z,0.90
2019-03-04T20:13:28.406Z,0.73
2019-03-04T20:17:32.553Z,1.00
2019-03-04T20:21:36.649Z,0.80
2019-03-04T20:25:40.733Z,0.80
2019-03-04T20:29:44.917Z,0.80
2019-03-04T20:33:49.065Z,0.80
2019-03-04T20:37:53.410Z,0.70
2019-03-04T20:41:57.503Z,1.27
2019-03-04T20:46:01.596Z,0.90
2019-03-04T20:50:06.575Z,0.80
2019-03-04T20:54:10.687Z,0.70
2019-03-04T20:58:22.635Z,0.80
2019-03-04T21:02:26.649Z,0.87
2019-03-04T21:06:33.415Z,0.70
2019-03-04T21:10:37.564Z,0.70
2019-03-04T21:14:45.561Z,0.70
2019-03-04T21:18:49.745Z,1.00
2019-03-04T21:22:53.892Z,0.83
2019-03-04T21:26:58.202Z,1.10
2019-03-04T21:31:14.221Z,0.80
2019-03-04T21:35:27.213Z,0.70
2019-03-04T21:39:32.971Z,0.90
2019-03-04T21:43:39.544Z,0.60
2019-03-04T21:47:45.551Z,0.60
2019-03-04T21:52:19.541Z,0.83
2019-03-04T21:56:19.477Z,1.20
2019-03-04T22:00:29.561Z,2.00
2019-03-04T22:04:33.609Z,1.80
2019-03-04T22:08:37.778Z,1.30
2019-03-04T22:12:44.497Z,1.00
2019-03-04T22:16:48.662Z,0.80
2019-03-04T22:20:52.813Z,0.70
2019-03-04T22:24:56.891Z,0.80
2019-03-04T22:29:00.908Z,0.70
2019-03-04T22:33:05.178Z,0.80
2019-03-04T22:37:09.206Z,0.70
2019-03-04T22:41:13.871Z,0.87
2019-03-04T22:45:19.013Z,0.67
2019-03-04T22:49:24.230Z,0.80
2019-03-04T22:53:28.395Z,0.57
2019-03-04T22:57:32.518Z,0.80
2019-03-04T23:01:39.615Z,0.60
2019-03-04T23:05:45.596Z,0.70
2019-03-04T23:09:57.588Z,0.80
2019-03-04T23:14:04.150Z,0.90
2019-03-04T23:18:08.163Z,1.20
2019-03-04T23:22:12.197Z,0.80
2019-03-04T23:26:16.304Z,0.67
2019-03-04T23:30:20.371Z,0.70
2019-03-04T23:34:25.631Z,0.60
2019-03-04T23:38:29.731Z,0.70
2019-03-04T23:42:33.760Z,0.90
2019-03-04T23:46:37.769Z,0.90
2019-03-04T23:50:41.989Z,0.80
2019-03-04T23:54:46.262Z,0.70
2019-03-04T23:58:50.221Z,0.90
